Time;durP1;ratioP1;P1;durP2;ratioP2;P2;SDS_P1;SDS_P2;PMS_P1;PMS_P2;Temp;Humidity;BMP_temperature;BMP_pressure;BME280_temperature;BME280_humidity;BME280_pressure;Samples;Min_cycle;Max_cycle;Signal;HPM_P1;HPM_P2
2022/06/18 00:00:55;;;;;;;1.20;1.10;;;24.30;58.60;;;;;;5098737;28;20114;-63
2022/06/18 00:03:21;;;;;;;1.42;1.20;;;24.30;58.70;;;;;;5084309;28;20032;-62
2022/06/18 00:05:50;;;;;;;1.10;1.00;;;24.20;58.80;;;;;;5091244;28;20032;-62
2022/06/18 00:08:20;;;;;;;0.82;0.82;;;24.20;58.90;;;;;;5091423;28;20415;-62
2022/06/18 00:10:48;;;;;;;1.17;1.08;;;24.20;58.90;;;;;;5092088;28;20105;-62
2022/06/18 00:15:58;;;;;;;1.20;1.10;;;24.20;59.10;;;;;;5076808;28;20059;-62
2022/06/18 00:18:25;;;;;;;1.00;1.00;;;24.10;59.10;;;;;;5099247;28;20480;-62
2022/06/18 00:20:51;;;;;;;0.93;0.90;;;24.10;59.20;;;;;;5099593;28;20036;-63
2022/06/18 00:23:18;;;;;;;1.08;0.73;;;24.00;59.20;;;;;;5083193;28;20063;-62
2022/06/18 00:25:47;;;;;;;1.20;1.10;;;24.00;59.20;;;;;;5090756;28;20039;-62
2022/06/18 00:28:16;;;;;;;1.63;1.10;;;24.00;59.20;;;;;;5089611;28;20106;-62
2022/06/18 00:30:42;;;;;;;1.77;1.17;;;24.00;59.20;;;;;;5087806;28;20035;-61
2022/06/18 00:33:08;;;;;;;1.85;1.05;;;24.00;59.30;;;;;;5075796;28;20020;-62
2022/06/18 00:35:35;;;;;;;1.02;0.73;;;24.00;59.50;;;;;;5083435;28;20086;-61
2022/06/18 00:38:03;;;;;;;0.68;0.68;;;24.00;59.60;;;;;;5089305;28;20032;-61
2022/06/18 00:40:35;;;;;;;1.10;1.00;;;23.90;59.70;;;;;;5075121;28;20035;-62
2022/06/18 00:43:28;;;;;;;1.10;1.00;;;23.90;59.90;;;;;;5091307;28;20043;-62
2022/06/18 00:46:00;;;;;;;1.35;1.08;;;23.80;59.80;;;;;;5060683;28;20102;-61
2022/06/18 00:48:37;;;;;;;2.92;0.90;;;23.80;59.90;;;;;;5074211;28;20470;-61
2022/06/18 00:51:16;;;;;;;1.23;1.10;;;23.80;60.00;;;;;;5090234;28;20084;-62
2022/06/18 00:53:56;;;;;;;1.20;1.10;;;23.80;60.00;;;;;;5081370;28;20379;-61
2022/06/18 00:56:35;;;;;;;1.35;1.15;;;23.80;60.00;;;;;;5079579;28;20025;-60
2022/06/18 00:59:15;;;;;;;1.13;1.02;;;23.70;60.20;;;;;;5089144;28;20028;-62
2022/06/18 01:01:45;;;;;;;1.38;1.00;;;23.60;60.30;;;;;;5088663;28;20459;-61
2022/06/18 01:04:32;;;;;;;1.00;1.00;;;23.60;60.40;;;;;;5101557;28;20024;-62
2022/06/18 01:07:36;;;;;;;1.70;1.10;;;23.60;60.50;;;;;;5091060;28;20079;-61
2022/06/18 01:10:05;;;;;;;1.50;1.15;;;23.50;60.60;;;;;;5090320;28;20100;-61
2022/06/18 01:12:31;;;;;;;0.95;0.80;;;23.50;60.80;;;;;;5078073;28;20039;-61
2022/06/18 01:15:01;;;;;;;0.80;0.80;;;23.40;60.80;;;;;;5088134;28;20052;-62
2022/06/18 01:17:29;;;;;;;1.20;1.10;;;23.40;60.90;;;;;;5096536;28;20039;-62
2022/06/18 01:19:55;;;;;;;0.88;0.88;;;23.40;60.90;;;;;;5096968;28;20038;-61
2022/06/18 01:22:45;;;;;;;1.58;1.10;;;23.30;60.90;;;;;;5096900;28;20024;-60
2022/06/18 01:25:11;;;;;;;0.80;0.80;;;23.30;61.00;;;;;;5092687;28;20046;-61
2022/06/18 01:27:39;;;;;;;0.90;0.90;;;23.20;61.00;;;;;;5101419;28;20103;-61
2022/06/18 01:30:11;;;;;;;0.70;0.70;;;23.20;61.20;;;;;;5091530;28;20034;-62
2022/06/18 01:32:37;;;;;;;2.15;1.00;;;23.20;61.30;;;;;;5075963;28;20532;-62
2022/06/18 01:35:04;;;;;;;0.85;0.85;;;23.20;61.40;;;;;;5079713;28;20139;-61
2022/06/18 01:37:31;;;;;;;1.35;1.23;;;23.10;61.60;;;;;;5080012;28;20028;-61
2022/06/18 01:39:57;;;;;;;0.95;0.93;;;23.10;61.70;;;;;;5093346;28;20065;-61
2022/06/18 01:42:29;;;;;;;1.20;0.90;;;23.10;61.70;;;;;;5078441;28;20064;-61
2022/06/18 01:45:03;;;;;;;1.13;1.02;;;23.00;61.80;;;;;;5085419;28;20028;-62
2022/06/18 01:47:39;;;;;;;1.40;1.30;;;23.00;61.90;;;;;;5073202;28;20028;-61
2022/06/18 01:50:22;;;;;;;1.52;1.05;;;23.00;62.10;;;;;;5076062;28;20032;-61
2022/06/18 01:52:59;;;;;;;1.20;1.10;;;22.90;62.10;;;;;;5068652;28;20060;-60
2022/06/18 01:55:37;;;;;;;1.90;1.30;;;22.90;62.30;;;;;;5071487;28;20542;-61
2022/06/18 01:58:13;;;;;;;1.58;1.20;;;22.80;62.50;;;;;;5094293;28;20451;-61
2022/06/18 02:00:41;;;;;;;1.10;1.05;;;22.80;62.60;;;;;;5084414;28;20032;-61
2022/06/18 02:03:07;;;;;;;1.05;0.90;;;22.70;62.70;;;;;;5083876;28;20028;-62
2022/06/18 02:05:33;;;;;;;1.10;1.00;;;22.70;62.70;;;;;;5082557;28;20482;-61
2022/06/18 02:08:00;;;;;;;1.50;1.40;;;22.70;62.80;;;;;;5088526;28;20050;-62
2022/06/18 02:10:36;;;;;;;0.82;0.82;;;22.70;62.90;;;;;;5069029;28;20050;-62
2022/06/18 02:13:04;;;;;;;0.90;0.90;;;22.70;63.00;;;;;;5088192;28;20035;-62
2022/06/18 02:15:34;;;;;;;2.33;1.35;;;22.60;63.10;;;;;;5098009;28;20521;-62
2022/06/18 02:18:05;;;;;;;1.40;1.30;;;22.60;63.20;;;;;;5099743;28;20027;-62
2022/06/18 02:20:36;;;;;;;1.27;1.00;;;22.60;63.30;;;;;;5085409;28;20060;-62
2022/06/18 02:23:02;;;;;;;1.08;1.02;;;22.60;63.40;;;;;;5079153;28;20019;-63
2022/06/18 02:25:30;;;;;;;1.45;1.17;;;22.50;63.50;;;;;;5085277;28;20533;-62
2022/06/18 02:28:00;;;;;;;1.02;1.00;;;22.50;63.60;;;;;;5088222;28;20569;-62
2022/06/18 02:30:30;;;;;;;1.75;1.00;;;22.50;63.70;;;;;;5074779;28;20371;-62
2022/06/18 02:33:24;;;;;;;1.73;1.27;;;22.40;63.70;;;;;;5082480;28;20104;-62
2022/06/18 02:35:51;;;;;;;1.23;1.13;;;22.50;63.80;;;;;;5080649;28;20024;-62
2022/06/18 02:38:20;;;;;;;1.33;1.23;;;22.40;64.00;;;;;;5082856;28;20494;-62
2022/06/18 02:40:46;;;;;;;1.10;1.00;;;22.40;64.00;;;;;;5076072;28;20020;-61
2022/06/18 02:43:13;;;;;;;1.15;0.93;;;22.40;64.10;;;;;;5088189;28;20096;-62
2022/06/18 02:45:41;;;;;;;1.33;1.23;;;22.40;64.10;;;;;;5077035;28;20115;-62
2022/06/18 02:48:10;;;;;;;2.22;1.45;;;22.30;64.10;;;;;;5073997;28;20523;-63
2022/06/18 02:50:39;;;;;;;1.38;1.27;;;22.30;64.20;;;;;;5079427;28;20028;-62
2022/06/18 02:53:05;;;;;;;1.45;1.35;;;22.40;64.30;;;;;;5086193;28;20023;-63
2022/06/18 02:55:40;;;;;;;0.90;0.90;;;22.40;64.10;;;;;;5089565;28;20028;-63
2022/06/18 02:58:26;;;;;;;2.80;1.80;;;22.40;63.90;;;;;;5080768;28;20036;-62
2022/06/18 03:00:56;;;;;;;1.23;1.08;;;22.50;63.80;;;;;;5067701;28;20483;-62
2022/06/18 03:03:26;;;;;;;1.35;1.25;;;22.50;63.80;;;;;;5068845;28;20099;-62
2022/06/18 03:05:52;;;;;;;1.33;1.23;;;22.50;63.90;;;;;;5075436;28;20044;-63
2022/06/18 03:08:20;;;;;;;1.45;1.20;;;22.50;63.80;;;;;;5087493;28;20083;-62
2022/06/18 03:13:30;;;;;;;1.50;1.17;;;22.60;63.80;;;;;;5080986;28;20047;-62
2022/06/18 03:15:56;;;;;;;10.30;1.35;;;22.60;63.80;;;;;;5079315;28;20036;-62
2022/06/18 03:18:25;;;;;;;1.55;1.10;;;22.60;63.70;;;;;;5092431;28;20428;-61
2022/06/18 03:21:25;;;;;;;1.70;1.50;;;22.60;63.70;;;;;;5072086;28;20029;-61
2022/06/18 03:23:50;;;;;;;3.25;1.40;;;22.70;63.80;;;;;;5081156;28;20035;-62
2022/06/18 03:26:17;;;;;;;1.42;1.33;;;22.70;63.80;;;;;;5076422;28;20190;-62
2022/06/18 03:28:44;;;;;;;1.40;1.30;;;22.70;63.90;;;;;;5086981;28;20391;-63
2022/06/18 03:31:10;;;;;;;1.70;1.42;;;22.70;63.90;;;;;;5071125;28;20598;-62
2022/06/18 03:33:36;;;;;;;1.77;1.35;;;22.70;63.90;;;;;;5074969;28;20028;-63
2022/06/18 03:36:03;;;;;;;2.78;1.40;;;22.70;63.90;;;;;;5083829;28;20491;-62
2022/06/18 03:38:30;;;;;;;1.67;1.52;;;22.70;64.00;;;;;;5077557;28;20029;-62
2022/06/18 03:40:56;;;;;;;1.55;1.45;;;22.70;64.00;;;;;;5079726;28;20038;-62
2022/06/18 03:43:24;;;;;;;2.45;1.83;;;22.70;64.00;;;;;;5090749;28;20031;-62
2022/06/18 03:45:53;;;;;;;1.98;1.70;;;22.70;64.00;;;;;;5074141;28;20082;-62
2022/06/18 03:48:41;;;;;;;1.38;1.27;;;22.70;64.10;;;;;;5084370;28;20028;-63
2022/06/18 03:51:07;;;;;;;1.55;1.35;;;22.70;64.10;;;;;;5092649;28;20036;-62
2022/06/18 03:53:33;;;;;;;1.38;1.27;;;22.70;64.20;;;;;;5078893;28;20468;-62
2022/06/18 03:55:58;;;;;;;1.30;1.20;;;22.70;64.20;;;;;;5079556;28;20024;-61
2022/06/18 03:58:24;;;;;;;1.20;1.10;;;22.70;64.40;;;;;;5088405;28;20039;-62
2022/06/18 04:00:51;;;;;;;1.85;1.70;;;22.70;64.30;;;;;;5078929;28;20039;-62
2022/06/18 04:03:17;;;;;;;1.83;1.35;;;22.70;64.30;;;;;;5081625;28;20545;-62
2022/06/18 04:05:43;;;;;;;1.70;1.02;;;22.70;64.30;;;;;;5075971;28;20037;-63
2022/06/18 04:08:13;;;;;;;1.75;1.33;;;22.70;65.00;;;;;;5075354;28;20102;-61
2022/06/18 04:10:41;;;;;;;1.65;1.20;;;22.70;64.50;;;;;;5081496;28;20052;-62
2022/06/18 04:13:07;;;;;;;1.27;1.20;;;22.70;64.70;;;;;;5084517;28;20031;-62
2022/06/18 04:15:33;;;;;;;3.65;1.67;;;22.80;64.70;;;;;;5077587;28;20024;-61
2022/06/18 04:17:59;;;;;;;1.45;1.35;;;22.70;64.70;;;;;;5074881;28;20029;-62
2022/06/18 04:20:31;;;;;;;1.60;1.15;;;22.80;64.80;;;;;;5074686;28;20024;-62
2022/06/18 04:22:57;;;;;;;1.58;1.48;;;22.80;64.90;;;;;;5084259;28;20115;-62
2022/06/18 04:25:23;;;;;;;1.95;1.60;;;22.80;64.90;;;;;;5084992;28;20103;-62
2022/06/18 04:27:49;;;;;;;1.63;1.50;;;22.80;65.00;;;;;;5089810;28;20043;-62
2022/06/18 04:30:16;;;;;;;1.70;1.42;;;22.80;65.20;;;;;;5081508;28;20042;-62
2022/06/18 04:32:41;;;;;;;1.38;1.10;;;22.80;65.20;;;;;;5091868;28;20534;-62
2022/06/18 04:35:10;;;;;;;1.77;1.67;;;22.90;65.20;;;;;;5082735;28;20089;-61
2022/06/18 04:37:37;;;;;;;1.70;1.38;;;23.00;65.30;;;;;;5080384;28;20025;-62
2022/06/18 04:40:03;;;;;;;1.80;1.70;;;23.00;65.30;;;;;;5074352;28;21328;-63
2022/06/18 04:42:29;;;;;;;1.42;1.33;;;23.10;65.30;;;;;;5071061;28;20043;-61
2022/06/18 04:44:55;;;;;;;1.77;1.30;;;23.10;65.20;;;;;;5081699;28;20115;-63
2022/06/18 04:47:21;;;;;;;1.58;1.48;;;23.20;65.20;;;;;;5068624;28;20024;-63
2022/06/18 04:49:47;;;;;;;1.70;1.60;;;23.20;65.10;;;;;;5068035;28;20470;-63
2022/06/18 04:52:13;;;;;;;5.05;1.58;;;23.30;65.10;;;;;;5076284;28;20024;-62
2022/06/18 04:54:39;;;;;;;2.05;1.58;;;23.30;65.00;;;;;;5082648;28;20120;-62
2022/06/18 04:57:04;;;;;;;1.90;1.80;;;23.40;64.90;;;;;;5089555;28;20073;-61
2022/06/18 04:59:30;;;;;;;1.63;1.52;;;23.40;64.70;;;;;;5078029;28;20135;-61
2022/06/18 05:02:02;;;;;;;1.40;1.30;;;23.50;64.60;;;;;;5074323;28;20040;-62
2022/06/18 05:04:28;;;;;;;1.77;1.67;;;23.50;64.50;;;;;;5070690;28;20090;-63
2022/06/18 05:06:53;;;;;;;2.08;1.42;;;23.60;64.40;;;;;;5071765;28;20063;-62
2022/06/18 05:09:19;;;;;;;2.28;1.45;;;23.60;64.20;;;;;;5080941;28;20052;-62
2022/06/18 05:11:45;;;;;;;2.13;1.70;;;23.60;64.00;;;;;;5083485;28;20016;-61
2022/06/18 05:14:11;;;;;;;7.40;2.13;;;23.70;63.90;;;;;;5077827;28;20493;-62
2022/06/18 05:16:36;;;;;;;2.58;1.88;;;23.70;63.90;;;;;;5073970;28;20031;-61
2022/06/18 05:19:02;;;;;;;2.38;1.42;;;23.70;63.70;;;;;;5079826;28;20055;-62
2022/06/18 05:21:28;;;;;;;3.55;1.65;;;23.80;63.50;;;;;;5069605;28;20441;-62
2022/06/18 05:23:54;;;;;;;2.08;1.60;;;23.80;63.30;;;;;;5079075;28;20039;-61
2022/06/18 05:26:20;;;;;;;1.70;1.52;;;23.90;63.10;;;;;;5084761;28;20036;-61
2022/06/18 05:28:45;;;;;;;2.10;1.88;;;24.00;62.90;;;;;;5086930;28;20035;-62
2022/06/18 05:31:11;;;;;;;2.78;1.95;;;24.00;62.70;;;;;;5081235;28;20024;-62
2022/06/18 05:33:37;;;;;;;2.17;1.50;;;24.00;62.70;;;;;;5084382;28;20419;-61
2022/06/18 05:36:05;;;;;;;2.63;1.88;;;24.10;62.40;;;;;;5093606;28;20087;-62
2022/06/18 05:38:31;;;;;;;6.28;1.55;;;24.10;62.40;;;;;;5093170;28;20036;-62
2022/06/18 05:40:57;;;;;;;2.83;1.50;;;24.20;62.30;;;;;;5094831;28;20034;-61
2022/06/18 05:43:22;;;;;;;2.40;1.70;;;24.20;62.10;;;;;;5092622;28;20035;-62
2022/06/18 05:45:48;;;;;;;1.88;1.55;;;24.30;61.90;;;;;;5092467;28;20028;-61
2022/06/18 05:48:14;;;;;;;1.50;1.00;;;24.30;61.90;;;;;;5079083;28;20039;-61
2022/06/18 05:50:40;;;;;;;1.13;1.00;;;24.40;61.80;;;;;;5081094;28;20386;-61
2022/06/18 05:53:06;;;;;;;1.63;1.52;;;24.40;61.60;;;;;;5071929;28;20036;-61
2022/06/18 05:55:32;;;;;;;3.83;1.83;;;24.50;61.60;;;;;;5074345;28;20020;-61
2022/06/18 05:57:58;;;;;;;3.47;2.55;;;24.50;62.20;;;;;;5077135;28;20481;-62
2022/06/18 06:00:27;;;;;;;3.67;2.30;;;24.50;61.50;;;;;;5072831;28;20047;-63
2022/06/18 06:02:53;;;;;;;2.80;1.95;;;24.40;61.60;;;;;;5076520;28;20107;-63
2022/06/18 06:05:19;;;;;;;3.10;2.13;;;24.50;61.70;;;;;;5075581;28;20579;-63
2022/06/18 06:07:45;;;;;;;2.90;2.60;;;24.50;61.70;;;;;;5070452;28;20060;-62
2022/06/18 06:13:09;;;;;;;3.45;2.10;;;24.50;61.60;;;;;;5069029;28;20109;-62
2022/06/18 06:15:36;;;;;;;2.75;2.38;;;24.50;61.60;;;;;;5082527;28;20469;-62
2022/06/18 06:18:02;;;;;;;1.75;1.60;;;24.50;61.60;;;;;;5078925;28;20032;-62
2022/06/18 06:20:31;;;;;;;2.17;1.98;;;24.60;61.60;;;;;;5079394;28;20028;-62
2022/06/18 06:22:58;;;;;;;3.30;1.75;;;24.60;61.50;;;;;;5073032;28;20099;-63
2022/06/18 06:25:24;;;;;;;2.42;2.22;;;24.60;61.40;;;;;;5069267;28;20044;-63
2022/06/18 06:27:50;;;;;;;7.43;2.40;;;24.70;61.30;;;;;;5074560;28;20043;-63
2022/06/18 06:30:16;;;;;;;2.38;2.03;;;24.80;61.30;;;;;;5071395;28;20089;-63
2022/06/18 06:32:43;;;;;;;4.65;2.95;;;24.80;61.20;;;;;;5088473;28;20055;-62
2022/06/18 06:35:10;;;;;;;2.50;1.80;;;24.80;61.20;;;;;;5081422;28;20118;-62
2022/06/18 06:37:36;;;;;;;3.65;2.17;;;24.90;61.00;;;;;;5078301;28;20454;-63
2022/06/18 06:40:02;;;;;;;2.35;2.08;;;24.90;61.10;;;;;;5076253;28;20039;-62
2022/06/18 06:42:28;;;;;;;4.13;3.05;;;24.90;61.00;;;;;;5077662;28;20367;-62
2022/06/18 06:44:54;;;;;;;3.35;2.72;;;25.00;60.90;;;;;;5087478;28;20115;-63
2022/06/18 06:47:20;;;;;;;3.78;2.28;;;25.00;61.00;;;;;;5092605;28;20039;-62
2022/06/18 06:49:46;;;;;;;2.42;2.17;;;25.00;61.00;;;;;;5094663;28;20028;-62
2022/06/18 06:52:12;;;;;;;3.92;2.72;;;25.10;61.00;;;;;;5084377;28;20068;-62
2022/06/18 06:54:38;;;;;;;4.35;2.28;;;25.10;60.90;;;;;;5102374;28;20698;-63
2022/06/18 06:57:21;;;;;;;2.45;2.03;;;25.20;60.90;;;;;;5089674;28;20168;-63
2022/06/18 06:59:47;;;;;;;2.30;2.10;;;25.30;60.90;;;;;;5077811;28;20028;-63
2022/06/18 07:02:18;;;;;;;2.00;1.80;;;25.40;60.80;;;;;;5070178;28;20033;-61
2022/06/18 07:04:43;;;;;;;3.72;1.90;;;25.40;60.70;;;;;;5071257;28;20028;-62
2022/06/18 07:07:13;;;;;;;2.90;2.13;;;25.50;60.70;;;;;;5071728;28;20033;-63
2022/06/18 07:09:39;;;;;;;3.33;2.00;;;25.50;60.50;;;;;;5075660;28;20045;-63
2022/06/18 07:12:06;;;;;;;1.88;1.67;;;25.60;60.30;;;;;;5070937;28;20024;-63
2022/06/18 07:14:31;;;;;;;2.00;1.50;;;25.80;60.30;;;;;;5079887;28;20036;-61
2022/06/18 07:16:57;;;;;;;2.35;2.10;;;25.80;60.10;;;;;;5072110;28;20904;-61
2022/06/18 07:19:22;;;;;;;4.25;1.77;;;26.00;60.00;;;;;;5073466;28;21115;-62
2022/06/18 07:21:52;;;;;;;3.30;1.75;;;26.00;59.80;;;;;;5083600;28;20083;-62
2022/06/18 07:24:19;;;;;;;4.13;2.63;;;26.00;59.80;;;;;;5085427;28;20052;-61
2022/06/18 07:26:45;;;;;;;2.08;1.60;;;26.00;59.70;;;;;;5081776;28;20089;-59
2022/06/18 07:29:10;;;;;;;2.47;1.88;;;26.00;59.80;;;;;;5091402;28;20089;-59
2022/06/18 07:31:36;;;;;;;4.03;2.38;;;26.10;59.90;;;;;;5087792;28;20094;-59
2022/06/18 07:34:05;;;;;;;2.55;2.20;;;26.10;59.80;;;;;;5085542;28;20016;-60
2022/06/18 07:36:32;;;;;;;6.00;2.83;;;26.20;59.80;;;;;;5088611;28;20729;-60
2022/06/18 07:38:59;;;;;;;5.70;2.40;;;26.20;59.80;;;;;;5091442;28;20035;-59
2022/06/18 07:41:37;;;;;;;2.97;1.92;;;26.20;59.70;;;;;;5090793;28;20032;-59
2022/06/18 07:44:03;;;;;;;3.00;2.03;;;26.20;59.80;;;;;;5076924;28;20044;-60
2022/06/18 07:46:29;;;;;;;2.38;1.35;;;26.20;59.80;;;;;;5074759;28;20783;-60
2022/06/18 07:48:55;;;;;;;2.58;1.80;;;26.40;59.60;;;;;;5077358;28;20058;-60
2022/06/18 07:51:22;;;;;;;4.28;1.70;;;26.50;59.30;;;;;;5068778;28;20474;-59
2022/06/18 07:53:48;;;;;;;1.55;1.40;;;26.70;59.10;;;;;;5069055;28;20013;-59
2022/06/18 07:56:15;;;;;;;2.65;2.10;;;26.80;58.90;;;;;;5074156;28;20084;-60
2022/06/18 07:58:41;;;;;;;1.45;1.35;;;26.90;58.70;;;;;;5070842;28;20159;-60
2022/06/18 08:01:07;;;;;;;2.10;1.63;;;26.90;58.50;;;;;;5087068;28;20075;-59
2022/06/18 08:03:33;;;;;;;3.88;2.00;;;27.00;58.50;;;;;;5086027;28;20462;-61
2022/06/18 08:06:01;;;;;;;2.58;2.30;;;27.00;58.10;;;;;;5085604;28;20036;-60
2022/06/18 08:08:27;;;;;;;6.95;1.83;;;27.10;58.10;;;;;;5086346;28;20510;-59
2022/06/18 08:10:53;;;;;;;3.08;2.03;;;27.10;58.10;;;;;;5084527;28;20115;-59
2022/06/18 08:13:20;;;;;;;1.88;1.65;;;27.10;58.10;;;;;;5083429;28;20077;-60
2022/06/18 08:15:46;;;;;;;5.63;1.70;;;27.20;58.10;;;;;;5091698;28;20095;-60
2022/06/18 08:18:12;;;;;;;3.35;2.10;;;27.20;58.10;;;;;;5084680;28;20100;-59
2022/06/18 08:20:38;;;;;;;1.40;1.30;;;27.30;58.00;;;;;;5081458;28;20041;-60
2022/06/18 08:23:06;;;;;;;1.58;1.45;;;27.50;58.50;;;;;;5077651;28;20029;-59
2022/06/18 08:25:34;;;;;;;1.77;1.20;;;27.60;57.70;;;;;;5081191;28;20115;-60
2022/06/18 08:28:03;;;;;;;1.98;1.73;;;27.80;57.50;;;;;;5073730;28;20063;-59
2022/06/18 08:30:29;;;;;;;1.50;1.40;;;27.80;57.40;;;;;;5090225;28;20035;-59
2022/06/18 08:32:55;;;;;;;2.50;2.03;;;27.90;57.20;;;;;;5082995;28;20448;-60
2022/06/18 08:35:21;;;;;;;5.50;2.05;;;28.00;57.00;;;;;;5091633;28;20111;-59
2022/06/18 08:37:47;;;;;;;2.80;1.50;;;28.00;56.70;;;;;;5089394;28;20379;-59
2022/06/18 08:40:44;;;;;;;1.67;1.58;;;28.10;56.70;;;;;;5089859;28;20063;-60
2022/06/18 08:43:27;;;;;;;1.55;1.45;;;28.20;57.00;;;;;;5064356;28;20040;-61
2022/06/18 08:46:11;;;;;;;3.53;1.90;;;28.20;56.40;;;;;;5087290;28;20035;-61
2022/06/18 08:48:47;;;;;;;1.58;1.48;;;28.30;56.00;;;;;;5074784;28;20044;-60
2022/06/18 08:51:37;;;;;;;3.83;1.92;;;28.40;55.90;;;;;;5081827;28;20027;-60
2022/06/18 08:54:12;;;;;;;2.40;1.40;;;28.50;55.70;;;;;;5085905;28;20043;-60
2022/06/18 08:57:00;;;;;;;3.65;2.10;;;28.60;55.50;;;;;;5079316;28;20042;-60
2022/06/18 08:59:50;;;;;;;3.38;1.70;;;28.70;55.20;;;;;;5081287;28;20110;-61
2022/06/18 09:02:27;;;;;;;1.88;1.42;;;28.80;55.70;;;;;;5077414;28;20097;-63
2022/06/18 09:05:07;;;;;;;3.15;1.55;;;28.80;54.90;;;;;;5082862;28;20021;-63
2022/06/18 09:07:57;;;;;;;1.75;1.60;;;28.80;54.80;;;;;;5090451;28;20032;-62
2022/06/18 09:10:54;;;;;;;2.55;1.55;;;28.80;54.70;;;;;;5080753;28;20478;-63
2022/06/18 09:13:29;;;;;;;1.70;1.27;;;29.00;54.90;;;;;;5066964;28;20095;-61
2022/06/18 09:16:02;;;;;;;1.95;1.50;;;29.10;54.70;;;;;;5085672;28;20086;-61
2022/06/18 09:19:01;;;;;;;1.95;1.85;;;29.20;54.60;;;;;;5072133;28;20024;-62
2022/06/18 09:21:30;;;;;;;1.85;1.65;;;29.30;54.60;;;;;;5077391;28;20732;-62
2022/06/18 09:24:02;;;;;;;2.13;1.63;;;29.40;54.20;;;;;;5074890;28;20047;-62
2022/06/18 09:26:41;;;;;;;2.08;1.27;;;29.40;53.80;;;;;;5072649;28;20039;-61
2022/06/18 09:29:16;;;;;;;1.38;1.27;;;29.50;53.80;;;;;;5074320;28;20051;-61
2022/06/18 09:31:49;;;;;;;2.60;1.45;;;29.60;53.50;;;;;;5076656;28;20027;-61
2022/06/18 09:34:46;;;;;;;2.10;1.60;;;29.60;53.40;;;;;;5080431;28;20028;-61
2022/06/18 09:37:17;;;;;;;2.72;1.52;;;29.70;53.00;;;;;;5064958;28;20059;-61
2022/06/18 09:39:48;;;;;;;2.10;1.90;;;29.80;52.40;;;;;;5072399;28;20039;-61
2022/06/18 09:42:28;;;;;;;1.50;1.40;;;29.80;51.80;;;;;;5081987;28;20028;-62
2022/06/18 09:45:04;;;;;;;2.75;1.75;;;29.80;52.00;;;;;;5079531;28;20028;-61
2022/06/18 09:47:37;;;;;;;1.92;1.38;;;29.90;52.20;;;;;;5072921;28;20495;-62
2022/06/18 09:50:11;;;;;;;1.95;1.40;;;30.10;51.40;;;;;;5083191;28;20027;-63
2022/06/18 09:52:39;;;;;;;3.00;1.58;;;30.20;51.00;;;;;;5077300;28;20063;-61
2022/06/18 09:55:35;;;;;;;3.35;1.67;;;30.30;50.00;;;;;;5086680;28;20016;-61
2022/06/18 09:58:05;;;;;;;1.27;1.17;;;30.40;50.30;;;;;;5074375;28;20044;-62
2022/06/18 10:00:32;;;;;;;4.72;1.52;;;30.50;50.30;;;;;;5083570;28;20024;-62
2022/06/18 10:03:04;;;;;;;2.28;1.42;;;30.60;50.30;;;;;;5086995;28;20036;-61
2022/06/18 10:08:36;;;;;;;2.50;2.05;;;30.80;50.40;;;;;;5079314;28;20062;-61
2022/06/18 10:11:08;;;;;;;2.17;1.42;;;30.90;50.40;;;;;;5069843;28;20021;-61
2022/06/18 10:13:50;;;;;;;2.80;1.92;;;31.00;49.70;;;;;;5082637;28;20479;-62
2022/06/18 10:16:43;;;;;;;1.55;1.30;;;31.00;49.40;;;;;;5081386;28;20016;-61
2022/06/18 10:19:36;;;;;;;2.70;1.70;;;31.20;49.30;;;;;;5087529;28;20111;-61
2022/06/18 10:22:22;;;;;;;1.77;1.40;;;31.20;48.70;;;;;;5084822;28;20020;-60
2022/06/18 10:24:54;;;;;;;4.20;1.88;;;31.30;48.60;;;;;;5083068;28;20029;-61
2022/06/18 10:27:40;;;;;;;1.48;1.38;;;31.40;48.50;;;;;;5083762;28;20099;-62
2022/06/18 10:30:36;;;;;;;1.98;1.58;;;31.50;48.30;;;;;;5075677;28;20135;-61
2022/06/18 10:33:16;;;;;;;3.65;1.52;;;31.50;47.40;;;;;;5094084;28;20040;-63
2022/06/18 10:35:51;;;;;;;1.40;1.30;;;31.50;47.90;;;;;;5072063;28;20028;-62
2022/06/18 10:38:29;;;;;;;1.40;1.30;;;31.60;47.80;;;;;;5073022;28;20409;-61
2022/06/18 10:41:19;;;;;;;2.10;1.25;;;31.80;47.60;;;;;;5080474;28;20111;-61
2022/06/18 10:44:35;;;;;;;2.58;1.88;;;31.90;46.40;;;;;;5086633;28;20036;-62
2022/06/18 10:47:08;;;;;;;2.00;1.30;;;31.90;45.70;;;;;;5057937;28;20049;-63
2022/06/18 10:49:34;;;;;;;1.10;1.00;;;31.90;45.80;;;;;;5086424;28;20066;-63
2022/06/18 10:52:00;;;;;;;1.50;1.10;;;32.00;45.90;;;;;;5080536;28;20043;-62
2022/06/18 10:54:33;;;;;;;2.60;1.55;;;32.10;45.70;;;;;;5092656;28;20490;-62
2022/06/18 10:57:00;;;;;;;3.35;1.63;;;32.30;45.70;;;;;;5080037;28;20036;-62
2022/06/18 10:59:29;;;;;;;2.05;1.75;;;32.40;44.90;;;;;;5081843;28;20089;-61
2022/06/18 11:02:00;;;;;;;2.80;1.65;;;32.40;44.50;;;;;;5085338;28;20039;-62
2022/06/18 11:04:29;;;;;;;1.48;1.38;;;32.40;44.30;;;;;;5085695;28;20024;-62
2022/06/18 11:07:06;;;;;;;1.35;1.15;;;32.50;44.70;;;;;;5071548;28;20028;-62
2022/06/18 11:09:52;;;;;;;5.93;1.75;;;32.50;44.70;;;;;;5078199;28;20041;-62
2022/06/18 11:12:27;;;;;;;5.47;1.75;;;32.60;45.30;;;;;;5073935;28;20048;-62
2022/06/18 11:14:53;;;;;;;2.55;1.67;;;32.60;45.40;;;;;;5087974;28;20024;-61
2022/06/18 11:17:19;;;;;;;1.30;1.20;;;32.70;45.40;;;;;;5083377;28;20062;-62
2022/06/18 11:19:51;;;;;;;1.10;1.00;;;32.80;44.90;;;;;;5086041;28;20035;-62
2022/06/18 11:22:24;;;;;;;3.25;1.17;;;32.90;45.20;;;;;;5087362;28;20486;-62
2022/06/18 11:24:59;;;;;;;2.30;1.17;;;33.20;45.30;;;;;;5084723;28;20039;-62
2022/06/18 11:27:36;;;;;;;3.60;1.80;;;33.40;45.30;;;;;;5089378;28;20032;-62
2022/06/18 11:30:18;;;;;;;4.80;2.13;;;33.50;44.70;;;;;;5086377;28;20036;-61
2022/06/18 11:32:47;;;;;;;1.83;1.73;;;33.50;44.70;;;;;;5084307;28;20028;-63
2022/06/18 11:35:13;;;;;;;2.58;1.90;;;33.40;44.40;;;;;;5084855;28;20538;-61
2022/06/18 11:37:39;;;;;;;1.67;1.48;;;33.30;44.20;;;;;;5081244;28;20120;-62
2022/06/18 11:40:09;;;;;;;1.73;1.63;;;33.30;44.30;;;;;;5084191;28;20519;-62
2022/06/18 11:42:49;;;;;;;3.72;1.45;;;33.20;44.20;;;;;;5082382;28;20112;-62
2022/06/18 11:45:18;;;;;;;1.70;1.60;;;33.20;45.00;;;;;;5078727;28;20032;-62
2022/06/18 11:48:22;;;;;;;1.85;1.42;;;33.30;44.40;;;;;;5087151;28;20744;-62
2022/06/18 11:50:58;;;;;;;1.90;1.70;;;33.40;44.50;;;;;;5084154;28;20455;-62
2022/06/18 11:53:27;;;;;;;4.68;2.10;;;33.40;43.50;;;;;;5083052;28;20467;-61
2022/06/18 11:55:56;;;;;;;5.55;2.00;;;33.40;43.00;;;;;;5086988;28;20059;-62
2022/06/18 11:58:36;;;;;;;2.60;1.80;;;33.30;43.00;;;;;;5088993;28;20382;-62
2022/06/18 12:01:19;;;;;;;1.58;1.48;;;33.40;43.10;;;;;;5088063;28;20152;-62
2022/06/18 12:04:04;;;;;;;1.63;1.33;;;33.40;42.40;;;;;;5085375;28;20035;-62
2022/06/18 12:06:52;;;;;;;2.25;1.95;;;33.50;42.50;;;;;;5090327;28;20058;-61
2022/06/18 12:09:18;;;;;;;3.42;1.83;;;33.70;42.10;;;;;;5085974;28;20139;-63
2022/06/18 12:12:05;;;;;;;1.38;1.13;;;33.80;42.80;;;;;;5088968;28;20099;-62
2022/06/18 12:14:49;;;;;;;2.28;1.80;;;33.90;42.10;;;;;;5089060;28;20027;-61
2022/06/18 12:17:44;;;;;;;2.33;1.95;;;33.90;41.70;;;;;;5087068;28;20027;-61
2022/06/18 12:20:38;;;;;;;1.83;1.73;;;34.00;41.90;;;;;;5081602;28;20041;-62
2022/06/18 12:23:13;;;;;;;1.88;1.40;;;34.00;41.80;;;;;;5087037;28;20043;-62
2022/06/18 12:25:52;;;;;;;3.63;1.70;;;34.20;41.80;;;;;;5074952;28;20077;-62
2022/06/18 12:28:30;;;;;;;1.40;1.30;;;34.20;41.60;;;;;;5088938;28;20028;-62
2022/06/18 12:31:55;;;;;;;2.03;1.73;;;34.40;42.00;;;;;;5080935;28;20024;-61
2022/06/18 12:34:29;;;;;;;3.75;1.45;;;34.60;42.10;;;;;;5012216;28;20037;-63
2022/06/18 12:37:26;;;;;;;3.35;2.30;;;34.80;40.80;;;;;;5075475;28;20536;-62
2022/06/18 12:39:52;;;;;;;3.08;1.65;;;34.70;40.30;;;;;;5087526;28;20433;-63
2022/06/18 12:42:51;;;;;;;4.10;1.63;;;34.50;40.50;;;;;;5086248;28;20084;-62
2022/06/18 12:45:49;;;;;;;1.33;1.23;;;34.30;41.20;;;;;;5084528;28;20030;-63
2022/06/18 12:48:49;;;;;;;2.22;1.35;;;34.20;41.70;;;;;;5082702;28;20074;-62
2022/06/18 12:51:35;;;;;;;1.80;1.70;;;34.20;42.00;;;;;;5079215;28;20028;-62
2022/06/18 12:54:18;;;;;;;4.05;1.80;;;34.20;42.20;;;;;;5087197;28;20059;-62
2022/06/18 12:56:55;;;;;;;5.88;1.48;;;34.20;41.70;;;;;;5083148;28;20034;-63
2022/06/18 12:59:29;;;;;;;2.13;1.52;;;34.10;42.30;;;;;;5084684;28;20181;-63
2022/06/18 13:02:07;;;;;;;3.78;1.77;;;34.10;42.30;;;;;;5088494;28;20042;-63
2022/06/18 13:04:54;;;;;;;1.20;1.20;;;34.00;42.70;;;;;;5087771;28;20074;-61
2022/06/18 13:07:36;;;;;;;1.60;1.13;;;34.00;42.70;;;;;;5086464;28;20028;-63
2022/06/18 13:10:23;;;;;;;4.10;1.45;;;34.20;43.00;;;;;;5091281;28;20077;-63
2022/06/18 13:13:04;;;;;;;4.57;1.98;;;34.50;42.70;;;;;;5083676;28;20020;-64
2022/06/18 13:15:47;;;;;;;4.63;1.88;;;34.50;42.10;;;;;;5081562;28;20040;-62
2022/06/18 13:18:26;;;;;;;3.42;1.40;;;34.60;42.00;;;;;;5085962;28;20459;-64
2022/06/18 13:20:56;;;;;;;0.98;0.95;;;34.80;41.80;;;;;;5080167;28;20035;-62
2022/06/18 13:29:15;;;;;;;1.35;1.25;;;35.40;40.40;;;;;;5082306;28;20040;-61
2022/06/18 13:32:05;;;;;;;3.22;1.80;;;35.50;40.60;;;;;;5077858;28;20426;-62